Time;durP1;ratioP1;P1;durP2;ratioP2;P2;SDS_P1;SDS_P2;PMS_P1;PMS_P2;Temp;Humidity;BMP_temperature;BMP_pressure;BME280_temperature;BME280_humidity;BME280_pressure;Samples;Min_cycle;Max_cycle;Signal;HPM_P1;HPM_P2
2024/02/24 00:25:40;;;;;;;;;;;5.70;99.90;;;;;;4959174;28;19915;-81
2024/02/24 00:28:41;;;;;;;;;;;;;;;;;;;;;
2024/02/24 00:31:27;;;;;;;;;;;5.50;99.90;;;;;;5006667;28;19957;-81
2024/02/24 00:34:08;;;;;;;;;;;5.60;99.90;;;;;;5004389;28;19929;-81
2024/02/24 00:36:54;;;;;;;;;;;5.50;99.90;;;;;;4986326;28;20242;-82
2024/02/24 00:39:56;;;;;;;;;;;5.40;99.90;;;;;;5025483;28;19908;-84
2024/02/24 00:42:43;;;;;;;;;;;5.50;99.90;;;;;;5041222;28;19901;-82
2024/02/24 00:53:27;;;;;;;;;;;5.40;99.90;;;;;;6010542;22;19935;-83
2024/02/24 01:04:01;;;;;;;;;;;5.20;99.90;;;;;;5076918;23;19922;-84
2024/02/24 01:06:43;;;;;;;;;;;5.20;99.90;;;;;;5040400;28;20252;-83
2024/02/24 01:09:32;;;;;;;;;;;5.00;99.90;;;;;;5036535;28;19996;-80
2024/02/24 01:12:36;;;;;;;;;;;5.10;99.90;;;;;;5021536;28;19901;-82
2024/02/24 01:15:32;;;;;;;;;;;5.00;99.90;;;;;;4984402;28;19957;-82
2024/02/24 01:21:05;;;;;;;;;;;5.00;99.90;;;;;;5001522;28;19937;-80
2024/02/24 01:23:32;;;;;;;;;;;4.90;99.90;;;;;;5001096;28;19936;-82
2024/02/24 01:25:59;;;;;;;;;;;4.90;99.90;;;;;;5006693;28;19966;-81
2024/02/24 01:29:00;;;;;;;;;;;;;;;;;;;;;
2024/02/24 01:31:34;;;;;;;;;;;4.80;99.90;;;;;;5035434;28;19909;-81
2024/02/24 01:34:32;;;;;;;;;;;4.90;99.90;;;;;;5038232;28;19902;-81
2024/02/24 01:37:17;;;;;;;;;;;4.90;99.90;;;;;;5021994;28;19921;-81
2024/02/24 01:39:43;;;;;;;;;;;5.00;99.90;;;;;;4990760;28;19961;-81
2024/02/24 01:42:12;;;;;;;;;;;4.90;99.90;;;;;;5007533;28;19916;-81
2024/02/24 01:44:38;;;;;;;;;;;4.90;99.90;;;;;;5005604;28;19905;-81
2024/02/24 01:47:04;;;;;;;;;;;5.00;99.90;;;;;;5007748;28;19929;-82
2024/02/24 01:49:34;;;;;;;;;;;5.00;99.90;;;;;;5007661;28;20158;-81
2024/02/24 01:52:01;;;;;;;;;;;5.00;99.90;;;;;;5007242;28;19902;-83
2024/02/24 01:54:29;;;;;;;;;;;5.00;99.90;;;;;;4991901;28;19901;-80
2024/02/24 01:56:57;;;;;;;;;;;5.00;99.90;;;;;;5023535;28;19902;-80
2024/02/24 01:59:23;;;;;;;;;;;5.00;99.90;;;;;;4991199;28;19936;-81
2024/02/24 02:01:49;;;;;;;;;;;5.00;99.90;;;;;;5006880;28;19909;-80
2024/02/24 02:04:15;;;;;;;;;;;5.00;99.90;;;;;;5007230;28;19933;-81
2024/02/24 02:07:04;;;;;;;;;;;5.10;99.90;;;;;;5007297;28;19979;-80
2024/02/24 02:09:30;;;;;;;;;;;5.10;99.90;;;;;;5039312;28;19917;-81
2024/02/24 02:11:59;;;;;;;;;;;5.10;99.90;;;;;;5007108;28;19901;-81
2024/02/24 02:14:24;;;;;;;;;;;5.10;99.90;;;;;;4991174;28;19902;-82
2024/02/24 02:16:52;;;;;;;;;;;5.10;99.90;;;;;;5023666;28;19902;-81
2024/02/24 02:19:22;;;;;;;;;;;5.10;99.90;;;;;;5006992;28;19924;-83
2024/02/24 02:25:36;;;;;;;;;;;;;;;;;;;;;
2024/02/24 02:28:42;;;;;;;;;;;5.10;99.90;;;;;;5023311;28;19901;-83
2024/02/24 02:31:16;;;;;;;;;;;5.00;99.90;;;;;;5024489;28;19940;-82
2024/02/24 02:33:47;;;;;;;;;;;5.10;99.90;;;;;;5038088;28;19908;-82
2024/02/24 02:36:18;;;;;;;;;;;5.10;99.90;;;;;;5006318;28;19902;-83
2024/02/24 02:38:46;;;;;;;;;;;5.10;99.90;;;;;;5023473;28;19908;-81
2024/02/24 02:41:39;;;;;;;;;;;5.10;99.90;;;;;;4991438;28;19969;-83
2024/02/24 02:44:08;;;;;;;;;;;5.10;99.90;;;;;;5039417;28;19964;-82
2024/02/24 02:47:16;;;;;;;;;;;;;;;;;;;;;
2024/02/24 02:49:47;;;;;;;;;;;5.00;99.90;;;;;;5009001;28;19921;-82
2024/02/24 02:54:56;;;;;;;;;;;5.00;99.90;;;;;;5488936;23;19916;-82
2024/02/24 02:57:26;;;;;;;;;;;5.00;99.90;;;;;;4952136;28;19909;-82
2024/02/24 02:59:56;;;;;;;;;;;5.00;99.90;;;;;;4952218;28;19908;-81
2024/02/24 03:02:25;;;;;;;;;;;5.00;99.90;;;;;;4995036;28;19965;-81
2024/02/24 03:04:53;;;;;;;;;;;5.00;99.90;;;;;;4987352;28;19902;-82
2024/02/24 03:07:18;;;;;;;;;;;5.00;99.90;;;;;;4978393;28;19906;-80
2024/02/24 03:09:53;;;;;;;;;;;5.00;99.90;;;;;;4951486;28;20009;-80
2024/02/24 03:12:21;;;;;;;;;;;5.00;99.90;;;;;;4968012;28;19973;-82
2024/02/24 03:14:53;;;;;;;;;;;5.00;99.90;;;;;;4951690;28;19902;-81
2024/02/24 03:17:21;;;;;;;;;;;5.00;99.90;;;;;;4967596;28;19953;-80
2024/02/24 03:19:50;;;;;;;;;;;5.00;99.90;;;;;;4967446;28;19926;-81
2024/02/24 03:22:16;;;;;;;;;;;5.00;99.90;;;;;;4967369;28;19914;-81
2024/02/24 03:24:50;;;;;;;;;;;5.00;99.90;;;;;;4967797;28;19921;-81
2024/02/24 03:27:19;;;;;;;;;;;5.00;99.90;;;;;;4986406;28;19918;-82
2024/02/24 03:30:05;;;;;;;;;;;4.90;99.90;;;;;;4955410;28;19916;-80
2024/02/24 03:32:37;;;;;;;;;;;4.90;99.90;;;;;;5001825;28;19917;-83
2024/02/24 03:35:07;;;;;;;;;;;4.90;99.90;;;;;;4953306;28;19902;-82
2024/02/24 03:37:59;;;;;;;;;;;4.90;99.90;;;;;;4971562;28;19930;-81
2024/02/24 03:40:37;;;;;;;;;;;5.00;99.90;;;;;;5003753;28;19902;-83
2024/02/24 03:46:45;;;;;;;;;;;4.80;99.90;;;;;;4945583;28;19903;-81
2024/02/24 03:51:58;;;;;;;;;;;4.80;99.90;;;;;;5174569;23;19909;-82
2024/02/24 03:54:25;;;;;;;;;;;4.70;99.90;;;;;;5009850;28;19901;-81
2024/02/24 03:56:57;;;;;;;;;;;4.70;99.90;;;;;;5025783;28;19925;-82
2024/02/24 03:59:24;;;;;;;;;;;4.70;99.90;;;;;;5324576;23;19917;-84
2024/02/24 04:05:13;;;;;;;;;;;4.60;99.90;;;;;;4986520;28;19910;-84
2024/02/24 04:07:40;;;;;;;;;;;4.70;99.90;;;;;;5550518;23;19906;-81
2024/02/24 04:10:28;;;;;;;;;;;4.70;99.90;;;;;;5025920;28;19939;-82
2024/02/24 04:13:02;;;;;;;;;;;4.80;99.90;;;;;;5024565;28;19925;-82
2024/02/24 04:15:40;;;;;;;;;;;4.70;99.90;;;;;;5007801;28;19902;-82
2024/02/24 04:18:09;;;;;;;;;;;4.70;99.90;;;;;;5010595;28;19968;-81
2024/02/24 04:20:37;;;;;;;;;;;4.70;99.90;;;;;;5009218;28;19902;-83
2024/02/24 04:23:05;;;;;;;;;;;4.80;99.90;;;;;;5009616;28;19956;-81
2024/02/24 04:25:38;;;;;;;;;;;4.80;99.90;;;;;;5009318;28;19902;-83
2024/02/24 04:28:25;;;;;;;;;;;4.80;99.90;;;;;;5011490;28;19909;-83
2024/02/24 04:30:51;;;;;;;;;;;4.80;99.90;;;;;;5025614;28;19940;-82
2024/02/24 04:33:20;;;;;;;;;;;4.90;99.90;;;;;;5025420;28;19932;-82
2024/02/24 04:35:47;;;;;;;;;;;4.70;99.90;;;;;;4993259;28;19985;-80
2024/02/24 04:38:30;;;;;;;;;;;4.90;99.90;;;;;;4991707;28;19901;-83
2024/02/24 04:40:59;;;;;;;;;;;4.80;99.90;;;;;;5009093;28;19909;-82
2024/02/24 04:43:34;;;;;;;;;;;4.90;99.90;;;;;;5025187;28;19902;-85
2024/02/24 04:46:00;;;;;;;;;;;5.00;99.90;;;;;;5008614;28;19922;-81
2024/02/24 04:48:26;;;;;;;;;;;5.00;99.90;;;;;;5025185;28;19921;-82
2024/02/24 04:50:57;;;;;;;;;;;4.90;99.90;;;;;;4993326;28;19945;-82
2024/02/24 04:53:26;;;;;;;;;;;5.00;99.90;;;;;;5025049;28;19909;-82
2024/02/24 04:58:54;;;;;;;;;;;5.00;99.90;;;;;;5027033;28;19922;-84
2024/02/24 05:01:29;;;;;;;;;;;5.00;99.90;;;;;;5009545;28;19907;-80
2024/02/24 05:08:20;;;;;;;;;;;5.00;99.90;;;;;;5035829;28;20173;-83
2024/02/24 05:13:57;;;;;;;;;;;4.70;99.90;;;;;;5024409;28;19905;-84
2024/02/24 05:16:34;;;;;;;;;;;4.80;99.90;;;;;;5025374;28;19921;-84
2024/02/24 05:19:24;;;;;;;;;;;4.80;99.90;;;;;;5037163;28;19902;-81
2024/02/24 05:22:08;;;;;;;;;;;4.80;99.90;;;;;;5024901;28;19901;-82
2024/02/24 05:25:07;;;;;;;;;;;4.70;99.90;;;;;;5024227;28;19902;-81
2024/02/24 05:27:39;;;;;;;;;;;4.70;99.90;;;;;;5024391;28;19924;-82
2024/02/24 05:33:21;;;;;;;;;;;4.70;99.90;;;;;;4964258;28;19908;-82
2024/02/24 05:35:48;;;;;;;;;;;4.70;99.90;;;;;;5024099;28;20404;-82
2024/02/24 05:38:20;;;;;;;;;;;4.70;99.90;;;;;;5008004;28;19902;-80
2024/02/24 05:40:46;;;;;;;;;;;4.70;99.90;;;;;;5007747;28;19916;-83
2024/02/24 05:43:32;;;;;;;;;;;4.60;99.90;;;;;;5017037;28;19921;-80
2024/02/24 05:46:03;;;;;;;;;;;4.70;99.90;;;;;;5023776;28;19917;-81
2024/02/24 05:48:45;;;;;;;;;;;4.70;99.90;;;;;;5007402;28;19902;-83
2024/02/24 05:51:32;;;;;;;;;;;4.70;99.90;;;;;;5022730;28;19909;-82
2024/02/24 05:54:19;;;;;;;;;;;4.60;99.90;;;;;;5006609;28;19908;-82
2024/02/24 05:56:53;;;;;;;;;;;4.60;99.90;;;;;;5007704;28;19956;-82
2024/02/24 05:59:19;;;;;;;;;;;4.60;99.90;;;;;;5023609;28;19903;-81
2024/02/24 06:04:53;;;;;;;;;;;4.60;99.90;;;;;;5016123;28;19908;-84
2024/02/24 06:07:21;;;;;;;;;;;4.60;99.90;;;;;;5007437;28;19921;-80
2024/02/24 06:10:26;;;;;;;;;;;4.60;99.90;;;;;;5003675;28;19910;-82
2024/02/24 06:12:59;;;;;;;;;;;4.50;99.90;;;;;;5020440;28;19917;-82
2024/02/24 06:15:49;;;;;;;;;;;4.50;99.90;;;;;;5019455;28;19901;-83
2024/02/24 06:18:44;;;;;;;;;;;4.50;99.90;;;;;;5020176;28;19930;-81
2024/02/24 06:21:31;;;;;;;;;;;4.50;99.90;;;;;;4999395;28;19902;-82
2024/02/24 06:24:08;;;;;;;;;;;4.40;99.90;;;;;;4999738;28;19925;-81
2024/02/24 06:26:42;;;;;;;;;;;4.50;99.90;;;;;;4983374;28;19918;-81
2024/02/24 06:29:19;;;;;;;;;;;;;;;;;;;;;
2024/02/24 06:31:58;;;;;;;;;;;4.50;99.90;;;;;;4936492;28;20070;-81
2024/02/24 06:34:34;;;;;;;;;;;4.50;99.90;;;;;;4984110;28;19902;-82
2024/02/24 06:37:01;;;;;;;;;;;4.50;99.90;;;;;;4968601;28;19910;-82
2024/02/24 06:39:30;;;;;;;;;;;4.50;99.90;;;;;;4952446;28;19910;-80
2024/02/24 06:42:01;;;;;;;;;;;4.50;99.90;;;;;;4981846;28;19932;-82
2024/02/24 06:44:31;;;;;;;;;;;4.50;99.90;;;;;;4979047;28;19902;-79
2024/02/24 06:46:59;;;;;;;;;;;4.50;99.90;;;;;;5000054;28;19942;-79
2024/02/24 06:49:25;;;;;;;;;;;4.50;99.90;;;;;;4967782;28;19910;-79
2024/02/24 06:51:51;;;;;;;;;;;4.60;99.90;;;;;;4967845;28;19965;-81
2024/02/24 06:54:17;;;;;;;;;;;4.70;99.90;;;;;;4967159;28;19914;-80
2024/02/24 06:57:06;;;;;;;;;;;4.70;99.90;;;;;;4992093;28;20342;-81
2024/02/24 06:59:32;;;;;;;;;;;4.70;99.90;;;;;;4971267;28;19914;-81
2024/02/24 07:01:58;;;;;;;;;;;4.60;99.90;;;;;;4953300;28;19949;-80
2024/02/24 07:04:33;;;;;;;;;;;4.80;99.90;;;;;;4973231;28;19929;-81
2024/02/24 07:06:59;;;;;;;;;;;4.70;99.90;;;;;;4957679;28;20059;-80
2024/02/24 07:09:25;;;;;;;;;;;4.70;99.90;;;;;;4991564;28;19929;-81
2024/02/24 07:11:55;;;;;;;;;;;4.70;99.90;;;;;;4993658;28;19924;-81
2024/02/24 07:14:21;;;;;;;;;;;4.70;99.90;;;;;;4989241;28;19953;-80
2024/02/24 07:16:47;;;;;;;;;;;4.70;99.90;;;;;;4973579;28;19932;-80
2024/02/24 07:19:15;;;;;;;;;;;4.80;99.90;;;;;;4975200;28;19936;-80
2024/02/24 07:22:01;;;;;;;;;;;4.70;99.90;;;;;;4985214;28;19918;-82
2024/02/24 07:24:34;;;;;;;;;;;4.70;99.90;;;;;;5000092;28;19980;-80
2024/02/24 07:27:16;;;;;;;;;;;4.90;99.90;;;;;;4988234;28;19992;-81
2024/02/24 07:30:09;;;;;;;;;;;4.80;99.90;;;;;;4987735;28;19932;-81
2024/02/24 07:33:05;;;;;;;;;;;4.80;99.90;;;;;;5031236;28;19941;-80
2024/02/24 07:35:39;;;;;;;;;;;5.00;99.90;;;;;;5014968;28;19917;-80
2024/02/24 07:38:10;;;;;;;;;;;4.90;99.90;;;;;;4985155;28;19981;-82
2024/02/24 07:40:36;;;;;;;;;;;5.00;99.90;;;;;;5003986;28;19913;-80
2024/02/24 07:43:21;;;;;;;;;;;5.00;99.90;;;;;;5006028;28;19961;-82
2024/02/24 07:46:18;;;;;;;;;;;;;;;;;;;;;
2024/02/24 07:49:18;;;;;;;;;;;5.10;99.90;;;;;;5022025;28;19901;-83
2024/02/24 07:52:05;;;;;;;;;;;5.00;99.90;;;;;;5022726;28;19916;-83
2024/02/24 07:54:31;;;;;;;;;;;5.10;99.90;;;;;;5005752;28;19901;-81
2024/02/24 08:00:07;;;;;;;;;;;5.10;99.90;;;;;;5035107;28;19902;-82
2024/02/24 08:02:36;;;;;;;;;;;5.20;99.90;;;;;;5021351;28;19933;-79
2024/02/24 08:05:02;;;;;;;;;;;5.30;99.90;;;;;;5006295;28;19908;-81
2024/02/24 08:07:32;;;;;;;;;;;5.20;99.90;;;;;;4990633;28;19944;-83
2024/02/24 08:09:59;;;;;;;;;;;5.30;99.90;;;;;;5003461;28;19940;-82
2024/02/24 08:12:44;;;;;;;;;;;5.30;99.90;;;;;;5020770;28;19924;-84
2024/02/24 08:15:13;;;;;;;;;;;5.20;99.90;;;;;;4986073;28;19902;-80
2024/02/24 08:23:00;;;;;;;;;;;5.40;99.90;;;;;;6045859;23;19920;-82
2024/02/24 08:25:27;;;;;;;;;;;5.40;99.90;;;;;;5007224;28;19965;-81
2024/02/24 08:28:06;;;;;;;;;;;5.50;99.90;;;;;;5006125;28;19908;-84
2024/02/24 08:35:51;;;;;;;;;;;5.60;99.90;;;;;;5660668;23;19910;-85
2024/02/24 08:47:30;;;;;;;;;;;5.90;99.90;;;;;;5094822;23;19932;-84
2024/02/24 09:13:13;;;;;;;;;;;6.70;99.90;;;;;;5041042;28;19937;-85
2024/02/24 09:18:56;;;;;;;;;;;6.90;99.90;;;;;;5914037;23;19934;-84
2024/02/24 09:21:51;;;;;;;;;;;7.10;99.90;;;;;;5010106;28;19905;-83
2024/02/24 09:24:22;;;;;;;;;;;7.20;99.90;;;;;;5007615;28;19940;-81
2024/02/24 09:26:48;;;;;;;;;;;7.20;99.90;;;;;;5024328;28;19936;-82
2024/02/24 09:29:14;;;;;;;;;;;7.40;99.90;;;;;;5008057;28;19949;-84
2024/02/24 09:31:45;;;;;;;;;;;7.50;99.90;;;;;;5024091;28;19928;-83
2024/02/24 09:34:18;;;;;;;;;;;7.60;99.90;;;;;;4999148;28;19918;-81
2024/02/24 09:36:45;;;;;;;;;;;7.60;99.90;;;;;;4985847;28;19921;-81
2024/02/24 09:39:16;;;;;;;;;;;7.70;99.90;;;;;;5000285;28;19905;-80
2024/02/24 09:41:46;;;;;;;;;;;7.70;99.90;;;;;;4979820;28;19922;-80
2024/02/24 09:44:16;;;;;;;;;;;7.70;99.90;;;;;;5003058;28;19932;-79
2024/02/24 09:46:43;;;;;;;;;;;7.80;99.90;;;;;;5011046;28;19918;-82
2024/02/24 09:49:09;;;;;;;;;;;7.80;99.90;;;;;;4985289;28;19913;-81
2024/02/24 09:51:43;;;;;;;;;;;7.80;99.90;;;;;;5003553;28;19926;-82
2024/02/24 09:54:09;;;;;;;;;;;7.80;99.90;;;;;;4996900;28;19917;-82
2024/02/24 09:56:37;;;;;;;;;;;7.90;99.90;;;;;;4996373;28;19908;-82
2024/02/24 09:59:03;;;;;;;;;;;7.90;99.90;;;;;;4982987;28;19929;-82
2024/02/24 10:01:29;;;;;;;;;;;7.90;99.90;;;;;;4985630;28;19988;-81
2024/02/24 10:03:55;;;;;;;;;;;8.00;99.90;;;;;;5003420;28;19928;-81
2024/02/24 10:06:21;;;;;;;;;;;8.00;99.90;;;;;;4984691;28;19902;-81
2024/02/24 10:08:47;;;;;;;;;;;8.00;99.90;;;;;;5002941;28;19925;-82
2024/02/24 10:11:13;;;;;;;;;;;8.00;99.90;;;;;;4972094;28;19965;-80
2024/02/24 10:13:42;;;;;;;;;;;8.00;99.90;;;;;;5018831;28;19908;-82
2024/02/24 10:16:09;;;;;;;;;;;8.10;99.90;;;;;;4984356;28;19957;-80
2024/02/24 10:21:28;;;;;;;;;;;8.20;99.90;;;;;;5004355;28;19921;-80
2024/02/24 10:23:54;;;;;;;;;;;8.20;99.90;;;;;;4996582;28;19964;-80
2024/02/24 10:26:28;;;;;;;;;;;8.20;99.90;;;;;;4989930;28;20009;-79
2024/02/24 10:28:54;;;;;;;;;;;8.20;99.90;;;;;;4995962;28;20028;-81
2024/02/24 10:31:26;;;;;;;;;;;8.20;99.90;;;;;;4978150;28;19917;-79
2024/02/24 10:34:00;;;;;;;;;;;8.30;99.90;;;;;;4981316;28;19905;-80
2024/02/24 10:36:26;;;;;;;;;;;8.30;99.90;;;;;;4981214;28;19913;-80
2024/02/24 10:38:53;;;;;;;;;;;8.50;99.90;;;;;;4980965;28;19993;-80
2024/02/24 10:41:19;;;;;;;;;;;8.70;99.90;;;;;;4995546;28;19918;-81
2024/02/24 10:43:46;;;;;;;;;;;8.60;99.90;;;;;;4982769;28;19924;-81
2024/02/24 10:46:13;;;;;;;;;;;8.70;99.90;;;;;;4975774;28;19921;-81
2024/02/24 10:48:58;;;;;;;;;;;8.70;99.90;;;;;;4985207;28;19933;-81
2024/02/24 10:51:26;;;;;;;;;;;8.70;99.90;;;;;;4979876;28;19929;-81
2024/02/24 10:53:56;;;;;;;;;;;8.70;99.90;;;;;;4995201;28;19904;-81
2024/02/24 10:56:26;;;;;;;;;;;8.90;99.90;;;;;;4971609;28;20433;-81
2024/02/24 10:59:06;;;;;;;;;;;9.20;99.90;;;;;;4991077;28;19952;-80
2024/02/24 11:01:32;;;;;;;;;;;9.60;99.90;;;;;;4984435;28;19924;-80
2024/02/24 11:04:01;;;;;;;;;;;9.90;99.90;;;;;;4969602;28;19913;-79
2024/02/24 11:06:43;;;;;;;;;;;10.10;99.90;;;;;;4970834;28;20021;-79
2024/02/24 11:09:13;;;;;;;;;;;10.30;99.90;;;;;;4982451;28;19922;-81
2024/02/24 11:11:39;;;;;;;;;;;10.40;99.90;;;;;;4980214;28;19926;-81
2024/02/24 11:14:11;;;;;;;;;;;11.00;99.90;;;;;;4988452;28;19996;-81
2024/02/24 11:16:48;;;;;;;;;;;;;;;;;;;;;
2024/02/24 11:19:30;;;;;;;;;;;11.40;99.90;;;;;;4982902;28;20014;-81
2024/02/24 11:22:29;;;;;;;;;;;11.80;99.90;;;;;;4958821;28;19914;-80
2024/02/24 11:25:03;;;;;;;;;;;11.80;98.90;;;;;;5007792;28;19929;-81
2024/02/24 11:27:36;;;;;;;;;;;12.10;99.90;;;;;;4978235;28;19906;-81
2024/02/24 11:30:23;;;;;;;;;;;12.30;99.90;;;;;;4977445;28;20013;-80
2024/02/24 11:32:57;;;;;;;;;;;12.10;99.50;;;;;;4982437;28;19925;-79
2024/02/24 11:35:23;;;;;;;;;;;11.90;98.10;;;;;;4958080;28;19987;-78
2024/02/24 11:37:49;;;;;;;;;;;11.90;98.60;;;;;;4939265;28;19953;-81
2024/02/24 11:40:17;;;;;;;;;;;12.00;99.20;;;;;;4963532;28;19949;-81
2024/02/24 11:43:11;;;;;;;;;;;;;;;;;;;;;
2024/02/24 11:45:58;;;;;;;;;;;12.20;98.30;;;;;;4975747;28;19930;-81
2024/02/24 11:48:47;;;;;;;;;;;11.90;97.90;;;;;;4970773;28;19940;-81
2024/02/24 11:51:18;;;;;;;;;;;11.30;99.40;;;;;;4980077;28;19933;-80
2024/02/24 11:54:11;;;;;;;;;;;10.80;99.60;;;;;;4966436;28;19918;-80
2024/02/24 11:57:01;;;;;;;;;;;10.70;99.90;;;;;;4966145;28;19929;-81
2024/02/24 11:59:30;;;;;;;;;;;10.60;99.90;;;;;;4975784;28;19903;-81
2024/02/24 12:02:06;;;;;;;;;;;;;;;;;;;;;
2024/02/24 12:04:39;;;;;;;;;;;10.40;99.90;;;;;;4972333;28;19945;-81
2024/02/24 12:07:22;;;;;;;;;;;10.10;99.90;;;;;;4965691;28;19913;-80
2024/02/24 12:10:04;;;;;;;;;;;10.00;99.90;;;;;;4982564;28;19925;-82
2024/02/24 12:12:48;;;;;;;;;;;9.80;99.90;;;;;;4973504;28;19942;-81
2024/02/24 12:15:40;;;;;;;;;;;9.80;99.90;;;;;;4974248;28;19918;-81
2024/02/24 12:18:16;;;;;;;;;;;9.70;99.90;;;;;;4989080;28;19898;-81
2024/02/24 12:20:48;;;;;;;;;;;9.50;99.90;;;;;;5003576;28;19910;-81
2024/02/24 12:23:34;;;;;;;;;;;;;;;;;;;;;
2024/02/24 12:26:13;;;;;;;;;;;9.60;99.90;;;;;;5019214;28;19917;-81
2024/02/24 12:29:05;;;;;;;;;;;9.60;99.90;;;;;;4963441;28;19918;-81
2024/02/24 12:31:59;;;;;;;;;;;9.60;99.90;;;;;;4960980;28;19925;-82
2024/02/24 12:34:39;;;;;;;;;;;9.60;99.90;;;;;;4960740;28;19933;-79
2024/02/24 12:37:20;;;;;;;;;;;9.50;99.90;;;;;;4940562;28;19925;-81
2024/02/24 12:39:51;;;;;;;;;;;9.40;99.90;;;;;;4992921;28;19913;-81
2024/02/24 12:42:39;;;;;;;;;;;9.30;99.90;;;;;;4988677;28;19922;-81
2024/02/24 12:45:10;;;;;;;;;;;9.20;99.90;;;;;;5011862;28;19945;-79
2024/02/24 12:47:40;;;;;;;;;;;9.20;99.90;;;;;;4972059;28;19921;-81
2024/02/24 12:50:09;;;;;;;;;;;9.10;99.90;;;;;;5002975;28;19926;-80
2024/02/24 12:52:44;;;;;;;;;;;9.20;99.90;;;;;;4983584;28;19909;-82
2024/02/24 12:55:16;;;;;;;;;;;9.20;99.90;;;;;;4997240;28;19902;-82
2024/02/24 12:57:43;;;;;;;;;;;9.20;99.90;;;;;;4979567;28;19936;-82
2024/02/24 13:00:27;;;;;;;;;;;;;;;;;;;;;
2024/02/24 13:02:55;;;;;;;;;;;9.10;99.90;;;;;;5034026;28;19940;-81
2024/02/24 13:05:30;;;;;;;;;;;9.10;99.90;;;;;;4974594;28;19918;-81
2024/02/24 13:07:56;;;;;;;;;;;9.10;99.90;;;;;;4942712;28;20267;-81
2024/02/24 13:10:22;;;;;;;;;;;9.10;99.90;;;;;;4981937;28;19922;-81
2024/02/24 13:12:50;;;;;;;;;;;9.10;99.90;;;;;;4969710;28;19920;-80
2024/02/24 13:15:18;;;;;;;;;;;9.00;99.90;;;;;;4975973;28;19918;-81
2024/02/24 13:17:44;;;;;;;;;;;9.00;99.90;;;;;;4959770;28;19957;-80
2024/02/24 13:20:20;;;;;;;;;;;9.00;99.90;;;;;;5012023;28;19917;-81
2024/02/24 13:22:53;;;;;;;;;;;9.00;99.90;;;;;;4986242;28;19913;-80
2024/02/24 13:25:29;;;;;;;;;;;9.00;99.90;;;;;;4991023;28;20012;-80
2024/02/24 13:28:07;;;;;;;;;;;9.00;99.90;;;;;;4985253;28;19921;-80
2024/02/24 13:33:57;;;;;;;;;;;;;;;;;;;;;
2024/02/24 13:36:37;;;;;;;;;;;8.40;99.90;;;;;;4998334;28;19923;-80
2024/02/24 13:39:11;;;;;;;;;;;8.30;99.90;;;;;;4973748;28;19941;-80
2024/02/24 13:41:40;;;;;;;;;;;8.20;99.90;;;;;;4973357;28;19924;-81
2024/02/24 13:44:12;;;;;;;;;;;8.00;99.90;;;;;;4981631;28;19901;-80
2024/02/24 13:46:48;;;;;;;;;;;8.00;99.90;;;;;;4983486;28;19918;-81
2024/02/24 13:49:24;;;;;;;;;;;8.00;99.90;;;;;;4991916;28;19972;-80
2024/02/24 13:51:52;;;;;;;;;;;8.00;99.90;;;;;;4975936;28;19994;-81
2024/02/24 13:54:28;;;;;;;;;;;8.10;99.90;;;;;;4953275;28;19925;-81
2024/02/24 13:57:04;;;;;;;;;;;8.20;99.90;;;;;;4959280;28;19957;-82
2024/02/24 13:59:45;;;;;;;;;;;8.40;99.90;;;;;;4975956;28;19964;-81
2024/02/24 14:02:23;;;;;;;;;;;8.80;99.90;;;;;;4948937;28;19926;-82
2024/02/24 14:05:00;;;;;;;;;;;9.30;99.90;;;;;;4969023;28;20221;-80
2024/02/24 14:07:27;;;;;;;;;;;9.40;99.90;;;;;;4961694;29;19923;-81
2024/02/24 14:09:56;;;;;;;;;;;9.40;99.90;;;;;;4955225;28;19999;-80
2024/02/24 14:12:25;;;;;;;;;;;9.30;99.90;;;;;;4949655;29;20005;-79
2024/02/24 14:15:01;;;;;;;;;;;9.40;99.90;;;;;;4972209;29;19914;-80
2024/02/24 14:17:32;;;;;;;;;;;9.50;99.90;;;;;;4986712;28;20372;-80
2024/02/24 14:20:01;;;;;;;;;;;9.70;99.90;;;;;;4982984;28;19925;-80
2024/02/24 14:22:30;;;;;;;;;;;9.60;99.90;;;;;;4979049;28;19913;-80
2024/02/24 14:24:56;;;;;;;;;;;9.70;99.90;;;;;;4987251;28;19913;-82
2024/02/24 14:27:25;;;;;;;;;;;9.60;99.90;;;;;;4981137;28;19914;-80
2024/02/24 14:29:54;;;;;;;;;;;9.50;99.90;;;;;;4976460;28;19928;-80
2024/02/24 14:32:19;;;;;;;;;;;9.30;99.90;;;;;;4974242;28;19922;-80
2024/02/24 14:34:50;;;;;;;;;;;9.10;99.90;;;;;;4953495;28;19922;-80
2024/02/24 14:37:16;;;;;;;;;;;9.00;99.90;;;;;;4958189;28;20002;-81
2024/02/24 14:39:48;;;;;;;;;;;9.00;99.90;;;;;;4964870;28;19968;-81
2024/02/24 14:42:14;;;;;;;;;;;9.10;99.90;;;;;;4999950;28;19929;-80
2024/02/24 14:44:44;;;;;;;;;;;9.20;99.90;;;;;;4983591;28;20232;-80
2024/02/24 14:47:11;;;;;;;;;;;9.10;99.90;;;;;;4959953;28;20338;-81
2024/02/24 14:49:39;;;;;;;;;;;9.10;99.90;;;;;;4970308;28;19925;-81
2024/02/24 14:52:17;;;;;;;;;;;9.60;99.90;;;;;;4936004;28;19918;-80
2024/02/24 14:54:49;;;;;;;;;;;9.90;99.90;;;;;;4967215;28;19965;-80
2024/02/24 14:57:17;;;;;;;;;;;10.10;99.90;;;;;;4932043;28;20483;-80
2024/02/24 15:00:11;;;;;;;;;;;10.20;99.90;;;;;;4947360;28;19973;-79
2024/02/24 15:02:44;;;;;;;;;;;10.40;99.90;;;;;;4968335;28;19928;-79
2024/02/24 15:05:10;;;;;;;;;;;10.30;99.90;;;;;;4971915;28;19948;-80
2024/02/24 15:07:49;;;;;;;;;;;10.10;99.90;;;;;;4966030;28;19928;-80
2024/02/24 15:10:22;;;;;;;;;;;10.50;99.90;;;;;;4930581;28;20018;-80
2024/02/24 15:12:50;;;;;;;;;;;10.60;99.90;;;;;;4960954;28;19917;-80
2024/02/24 15:15:16;;;;;;;;;;;10.50;99.90;;;;;;4972794;28;19945;-81
2024/02/24 15:17:42;;;;;;;;;;;10.40;99.90;;;;;;4971387;28;19918;-79
2024/02/24 15:20:11;;;;;;;;;;;10.20;99.90;;;;;;4948664;28;20287;-80
2024/02/24 15:22:37;;;;;;;;;;;9.90;99.90;;;;;;4966432;28;19924;-80
2024/02/24 15:25:03;;;;;;;;;;;9.70;99.90;;;;;;4968654;28;20254;-81
2024/02/24 15:27:33;;;;;;;;;;;9.60;99.90;;;;;;4952936;28;20012;-80
2024/02/24 15:29:58;;;;;;;;;;;9.50;99.90;;;;;;4967273;28;19921;-80
2024/02/24 15:32:24;;;;;;;;;;;9.50;99.90;;;;;;4951316;28;19928;-80
2024/02/24 15:34:53;;;;;;;;;;;9.40;99.90;;;;;;4967450;28;20004;-81
2024/02/24 15:37:19;;;;;;;;;;;9.20;99.90;;;;;;4954713;28;19963;-82
2024/02/24 15:39:45;;;;;;;;;;;9.10;99.90;;;;;;4986167;28;19925;-81
2024/02/24 15:42:15;;;;;;;;;;;9.10;99.90;;;;;;4948805;28;19914;-81
2024/02/24 15:44:43;;;;;;;;;;;9.00;99.90;;;;;;4959101;28;19918;-81
2024/02/24 15:47:08;;;;;;;;;;;8.90;99.90;;;;;;4950897;28;19926;-80
2024/02/24 15:49:35;;;;;;;;;;;8.80;99.90;;;;;;4966299;28;19922;-80
2024/02/24 15:52:04;;;;;;;;;;;8.80;99.90;;;;;;4968346;28;20311;-80
2024/02/24 15:54:30;;;;;;;;;;;8.70;99.90;;;;;;4969913;28;19943;-80
2024/02/24 15:56:56;;;;;;;;;;;8.60;99.90;;;;;;4971169;28;19924;-80
2024/02/24 15:59:23;;;;;;;;;;;8.70;99.90;;;;;;4982122;28;20005;-80
2024/02/24 16:01:49;;;;;;;;;;;8.70;99.90;;;;;;4950534;28;20327;-80
2024/02/24 16:04:15;;;;;;;;;;;8.60;99.90;;;;;;4998756;28;20001;-80
2024/02/24 16:06:41;;;;;;;;;;;8.60;99.90;;;;;;4962822;28;19993;-80
2024/02/24 16:09:08;;;;;;;;;;;8.60;99.90;;;;;;4963441;28;19969;-81
2024/02/24 16:11:36;;;;;;;;;;;8.60;99.90;;;;;;4949505;28;20008;-80
2024/02/24 16:14:02;;;;;;;;;;;8.50;99.90;;;;;;4988037;28;19921;-81
2024/02/24 16:16:33;;;;;;;;;;;8.40;99.90;;;;;;4963718;28;19906;-81
2024/02/24 16:18:59;;;;;;;;;;;8.40;99.90;;;;;;4961099;28;20319;-80
2024/02/24 16:21:26;;;;;;;;;;;8.40;99.90;;;;;;4987028;28;19905;-82
2024/02/24 16:23:56;;;;;;;;;;;8.40;99.90;;;;;;4988868;28;20032;-80
2024/02/24 16:26:29;;;;;;;;;;;8.30;99.90;;;;;;4966047;28;20208;-80
2024/02/24 16:29:16;;;;;;;;;;;8.30;99.90;;;;;;4969299;28;19921;-80
2024/02/24 16:31:51;;;;;;;;;;;8.20;99.90;;;;;;4975798;28;19971;-79
2024/02/24 16:34:22;;;;;;;;;;;8.20;99.90;;;;;;4968567;28;19917;-80
2024/02/24 16:37:06;;;;;;;;;;;;;;;;;;;;;
2024/02/24 16:39:37;;;;;;;;;;;8.10;99.90;;;;;;4989602;28;19917;-79
2024/02/24 16:42:04;;;;;;;;;;;8.10;99.90;;;;;;4964325;28;19922;-80
2024/02/24 16:44:52;;;;;;;;;;;8.10;99.90;;;;;;4969978;28;19932;-80
2024/02/24 16:47:24;;;;;;;;;;;8.00;99.90;;;;;;4957062;28;19947;-80
2024/02/24 16:49:50;;;;;;;;;;;7.90;99.90;;;;;;4967304;28;19925;-79
2024/02/24 16:52:18;;;;;;;;;;;8.00;99.90;;;;;;5000262;28;19950;-79
2024/02/24 16:54:44;;;;;;;;;;;8.00;99.90;;;;;;4984112;28;20030;-80
2024/02/24 16:57:12;;;;;;;;;;;8.00;99.90;;;;;;4964947;28;20373;-81
2024/02/24 16:59:41;;;;;;;;;;;7.90;99.90;;;;;;4977265;28;19914;-80
2024/02/24 17:02:09;;;;;;;;;;;7.90;99.90;;;;;;4999900;28;20067;-80
2024/02/24 17:04:41;;;;;;;;;;;7.90;99.90;;;;;;5004010;28;19949;-80
2024/02/24 17:07:20;;;;;;;;;;;7.90;99.90;;;;;;4967121;28;19991;-79
2024/02/24 17:10:07;;;;;;;;;;;7.90;99.90;;;;;;4980874;28;19921;-80
2024/02/24 17:12:34;;;;;;;;;;;7.90;99.90;;;;;;4981656;28;19918;-79
2024/02/24 17:15:03;;;;;;;;;;;7.80;99.90;;;;;;4997998;28;20330;-80
2024/02/24 17:17:34;;;;;;;;;;;7.90;99.90;;;;;;4949944;28;19918;-80
2024/02/24 17:20:01;;;;;;;;;;;7.80;99.90;;;;;;4965963;28;19934;-78
2024/02/24 17:22:44;;;;;;;;;;;7.80;99.90;;;;;;4980700;28;19921;-78
2024/02/24 17:25:10;;;;;;;;;;;7.90;99.90;;;;;;4966211;28;19940;-79
2024/02/24 17:27:47;;;;;;;;;;;7.80;99.90;;;;;;4982898;28;19918;-81
2024/02/24 17:30:20;;;;;;;;;;;7.70;99.90;;;;;;4982426;28;19926;-79